Station Historical Data
Daily Summary for January 8, 2018 Units:  English    Metric   Both
« Previous Day
Next Day »
Daily Weekly Monthly Yearly Custom
  High: Low: Average:
Temperature: 38.1 °F 14.4 °F 31.3 °F
Dew Point: 36.8 °F 3.8 °F 24.4 °F
Humidity: 95 % 45 % 77 %
Wind Speed: 7.0 mph 0.0 mph 0.7 mph
Wind Gust: 9.0 mph - -
Wind:- - SSW
Pressure: 30.43 in 30.12 in -
Precipitation: 0.07 in    
Historical Graphs
 
 
Tabular Data for January 8, 2018
Time Temperature Dew Point Pressure Wind Wind Speed Wind Gust Humidity Rainfall Rate (Hourly)
00:29 16.4 °F 4.2 °F 30.43 in Calm   2.0 mph 58 % 0.00 in
01:01 15.2 °F 3.8 °F 30.43 in Calm     60 % 0.00 in
01:27 14.4 °F 3.8 °F 30.42 in Calm     62 % 0.00 in
01:48 14.6 °F 4.3 °F 30.42 in Calm     63 % 0.00 in
02:24 14.8 °F 4.1 °F 30.40 in Calm   1.0 mph 62 % 0.00 in
02:46 14.8 °F 4.1 °F 30.39 in Calm     62 % 0.00 in
02:59 14.7 °F 4.1 °F 30.39 in Calm     62 % 0.00 in
03:12 14.5 °F 4.2 °F 30.39 in Calm   1.0 mph 63 % 0.00 in
03:35 14.5 °F 4.2 °F 30.37 in Calm   1.0 mph 63 % 0.00 in
04:18 15.4 °F 5.1 °F 30.35 in Calm     63 % 0.00 in
04:21 15.4 °F 5.1 °F 30.36 in Calm     63 % 0.00 in
04:26 15.7 °F 5.4 °F 30.36 in Calm   1.0 mph 63 % 0.00 in
04:32 15.8 °F 5.1 °F 30.35 in Calm   1.0 mph 62 % 0.00 in
04:37 15.7 °F 5.0 °F 30.35 in Calm   1.0 mph 62 % 0.00 in
04:39 15.6 °F 4.9 °F 30.35 in Calm   1.0 mph 62 % 0.00 in
04:44 15.5 °F 5.2 °F 30.35 in Calm   1.0 mph 63 % 0.00 in
04:49 15.5 °F 5.2 °F 30.35 in Calm     63 % 0.00 in
04:55 15.4 °F 4.7 °F 30.35 in Calm     62 % 0.00 in
04:56 15.4 °F 4.7 °F 30.35 in Calm     62 % 0.00 in
05:01 15.4 °F 5.1 °F 30.34 in Calm   1.0 mph 63 % 0.00 in
05:06 15.4 °F 5.1 °F 30.35 in Calm   1.0 mph 63 % 0.00 in
05:11 15.4 °F 5.1 °F 30.35 in Calm   1.0 mph 63 % 0.00 in
05:16 15.4 °F 5.1 °F 30.34 in Calm   1.0 mph 63 % 0.00 in
05:22 15.5 °F 5.2 °F 30.34 in Calm   1.0 mph 63 % 0.00 in
05:29 15.7 °F 5.0 °F 30.34 in Calm   1.0 mph 62 % 0.00 in
05:34 15.7 °F 5.0 °F 30.34 in Calm   1.0 mph 62 % 0.00 in
05:35 15.7 °F 5.0 °F 30.34 in Calm   1.0 mph 62 % 0.00 in
05:40 15.6 °F 4.9 °F 30.34 in Calm     62 % 0.00 in
05:45 15.5 °F 4.8 °F 30.33 in Calm     62 % 0.00 in
05:51 15.4 °F 5.1 °F 30.33 in Calm     63 % 0.00 in
05:52 15.4 °F 5.1 °F 30.33 in Calm     63 % 0.00 in
05:57 15.3 °F 5.0 °F 30.33 in Calm     63 % 0.00 in
06:02 15.3 °F 5.0 °F 30.34 in Calm     63 % 0.00 in
06:07 15.3 °F 5.3 °F 30.33 in Calm     64 % 0.00 in
06:09 15.3 °F 5.3 °F 30.33 in Calm     64 % 0.00 in
06:14 15.5 °F 5.5 °F 30.33 in Calm   1.0 mph 64 % 0.00 in
06:16 15.6 °F 5.6 °F 30.33 in Calm   1.0 mph 64 % 0.00 in
06:21 16.0 °F 6.0 °F 30.33 in Calm   1.0 mph 64 % 0.00 in
06:27 16.4 °F 6.0 °F 30.32 in Calm   2.0 mph 63 % 0.00 in
06:30 16.7 °F 6.0 °F 30.32 in Calm   2.0 mph 62 % 0.00 in
06:35 17.2 °F 6.1 °F 30.31 in Calm   2.0 mph 61 % 0.00 in
06:36 17.3 °F 6.2 °F 30.31 in Calm   2.0 mph 61 % 0.00 in
06:41 17.5 °F 6.4 °F 30.31 in Calm   2.0 mph 61 % 0.00 in
06:46 17.5 °F 6.0 °F 30.31 in Calm   2.0 mph 60 % 0.00 in
06:52 17.5 °F 6.0 °F 30.31 in Calm   1.0 mph 60 % 0.00 in
06:57 17.4 °F 6.3 °F 30.31 in Calm   3.0 mph 61 % 0.00 in
07:02 17.3 °F 6.2 °F 30.31 in Calm   3.0 mph 61 % 0.00 in
07:07 17.3 °F 6.2 °F 30.31 in Calm   3.0 mph 61 % 0.00 in
07:13 17.4 °F 6.3 °F 30.32 in Calm   1.0 mph 61 % 0.00 in
07:18 17.6 °F 6.1 °F 30.31 in Calm   1.0 mph 60 % 0.00 in
07:24 17.6 °F 6.1 °F 30.31 in Calm   1.0 mph 60 % 0.00 in
07:30 17.5 °F 6.0 °F 30.30 in Calm   1.0 mph 60 % 0.00 in
07:36 17.5 °F 6.4 °F 30.30 in Calm   3.0 mph 61 % 0.00 in
07:41 17.6 °F 6.5 °F 30.30 in Calm   3.0 mph 61 % 0.00 in
07:47 17.7 °F 6.2 °F 30.30 in SSW 1.0 mph 3.0 mph 60 % 0.00 in
07:53 17.7 °F 6.6 °F 30.30 in Calm   3.0 mph 61 % 0.00 in
07:58 17.8 °F 6.7 °F 30.29 in Calm   1.0 mph 61 % 0.00 in
08:03 17.9 °F 6.8 °F 30.30 in SSW 1.0 mph 2.0 mph 61 % 0.00 in
08:05 18.1 °F 6.9 °F 30.30 in Calm   3.0 mph 61 % 0.00 in
08:12 18.3 °F 6.8 °F 30.30 in Calm   3.0 mph 60 % 0.00 in
08:20 18.7 °F 6.8 °F 30.30 in Calm   3.0 mph 59 % 0.00 in
08:25 19.0 °F 7.4 °F 30.31 in South 1.0 mph 3.0 mph 60 % 0.00 in
08:30 19.4 °F 7.4 °F 30.31 in South 1.0 mph 3.0 mph 59 % 0.00 in
08:37 19.9 °F 7.5 °F 30.31 in Calm   3.0 mph 58 % 0.00 in
08:43 20.3 °F 7.9 °F 30.30 in Calm   3.0 mph 58 % 0.00 in
08:48 20.6 °F 8.6 °F 30.30 in Calm   1.0 mph 59 % 0.00 in
08:54 21.1 °F 8.6 °F 30.30 in Calm   2.0 mph 58 % 0.00 in
08:59 21.6 °F 8.7 °F 30.31 in Calm   3.0 mph 57 % 0.00 in
09:06 22.0 °F 8.7 °F 30.30 in South 1.0 mph 4.0 mph 56 % 0.00 in
09:16 22.5 °F 9.2 °F 30.29 in Calm   4.0 mph 56 % 0.00 in
09:24 22.8 °F 9.0 °F 30.30 in Calm   5.0 mph 55 % 0.00 in
09:33 23.2 °F 9.4 °F 30.30 in Calm   5.0 mph 55 % 0.00 in
09:46 23.6 °F 9.8 °F 30.30 in SSW 1.0 mph 4.0 mph 55 % 0.00 in
09:52 23.8 °F 10.0 °F 30.30 in SSW 2.0 mph 4.0 mph 55 % 0.00 in
10:00 24.4 °F 10.5 °F 30.30 in SSW 2.0 mph 4.0 mph 55 % 0.00 in
10:12 25.1 °F 10.8 °F 30.30 in Calm   5.0 mph 54 % 0.00 in
10:21 25.6 °F 10.8 °F 30.30 in Calm   4.0 mph 53 % 0.00 in
10:36 26.5 °F 11.2 °F 30.29 in Calm   5.0 mph 52 % 0.00 in
10:46 27.3 °F 11.5 °F 30.28 in WSW 2.0 mph 7.0 mph 51 % 0.00 in
10:53 27.6 °F 11.8 °F 30.28 in Calm   7.0 mph 51 % 0.00 in
10:58 28.0 °F 11.2 °F 30.28 in Calm   7.0 mph 49 % 0.00 in
11:12 28.8 °F 12.0 °F 30.27 in Calm   6.0 mph 49 % 0.00 in
11:24 29.2 °F 12.3 °F 30.27 in Calm   6.0 mph 49 % 0.00 in
11:29 29.5 °F 12.1 °F 30.26 in Calm   6.0 mph 48 % 0.00 in
11:34 29.9 °F 12.0 °F 30.26 in SW 1.0 mph 8.0 mph 47 % 0.00 in
11:39 30.3 °F 12.9 °F 30.25 in SSE 4.0 mph 8.0 mph 48 % 0.00 in
11:41 30.4 °F 12.9 °F 30.25 in South 3.0 mph 8.0 mph 48 % 0.00 in
11:45 30.5 °F 12.0 °F 30.25 in Calm   8.0 mph 46 % 0.00 in
11:48 30.6 °F 12.6 °F 30.24 in SW 1.0 mph 8.0 mph 47 % 0.00 in
11:52 30.5 °F 12.0 °F 30.24 in SW 4.0 mph 7.0 mph 46 % 0.00 in
11:57 30.5 °F 12.0 °F 30.23 in Calm   7.0 mph 46 % 0.00 in
12:02 30.6 °F 12.1 °F 30.23 in SE 1.0 mph 7.0 mph 46 % 0.00 in
12:07 30.8 °F 12.8 °F 30.23 in WSW 7.0 mph 7.0 mph 47 % 0.00 in
12:12 31.0 °F 13.0 °F 30.24 in SW 1.0 mph 7.0 mph 47 % 0.00 in
12:13 31.0 °F 12.5 °F 30.24 in SW 1.0 mph 7.0 mph 46 % 0.00 in
12:18 31.3 °F 13.3 °F 30.24 in SW 1.0 mph 7.0 mph 47 % 0.00 in
12:23 31.6 °F 13.1 °F 30.24 in Calm   7.0 mph 46 % 0.00 in
12:33 32.4 °F 14.3 °F 30.24 in SSW 2.0 mph 7.0 mph 47 % 0.00 in
12:38 32.6 °F 14.0 °F 30.23 in Calm   7.0 mph 46 % 0.00 in
12:43 32.9 °F 14.2 °F 30.24 in SSW 1.0 mph 7.0 mph 46 % 0.00 in
12:46 33.1 °F 14.4 °F 30.23 in Calm   7.0 mph 46 % 0.00 in
12:51 33.2 °F 14.0 °F 30.23 in South 5.0 mph 8.0 mph 45 % 0.00 in
12:52 33.2 °F 14.0 °F 30.23 in SSW 4.0 mph 8.0 mph 45 % 0.00 in
12:57 33.1 °F 14.4 °F 30.23 in SSW 5.0 mph 8.0 mph 46 % 0.00 in
13:02 33.1 °F 13.9 °F 30.24 in SW 3.0 mph 8.0 mph 45 % 0.00 in
13:07 33.0 °F 14.3 °F 30.23 in SW 2.0 mph 7.0 mph 46 % 0.00 in
13:12 33.0 °F 14.3 °F 30.23 in South 3.0 mph 8.0 mph 46 % 0.00 in
13:16 32.9 °F 14.2 °F 30.24 in SW 4.0 mph 8.0 mph 46 % 0.00 in
13:21 32.8 °F 14.7 °F 30.24 in WSW 1.0 mph 9.0 mph 47 % 0.00 in
13:26 32.8 °F 14.7 °F 30.23 in SW 4.0 mph 9.0 mph 47 % 0.00 in
13:31 32.8 °F 14.3 °F 30.22 in WSW 3.0 mph 9.0 mph 46 % 0.00 in
13:35 32.7 °F 14.7 °F 30.23 in WSW 3.0 mph 9.0 mph 47 % 0.00 in
13:41 32.7 °F 14.2 °F 30.22 in Calm   9.0 mph 46 % 0.00 in
13:43 32.7 °F 14.7 °F 30.21 in SSE 4.0 mph 9.0 mph 47 % 0.00 in
13:48 32.8 °F 14.8 °F 30.21 in Calm   8.0 mph 47 % 0.00 in
13:53 32.8 °F 15.7 °F 30.20 in Calm   7.0 mph 49 % 0.00 in
13:58 32.8 °F 17.1 °F 30.20 in SSW 1.0 mph 6.0 mph 52 % 0.00 in
14:03 32.9 °F 17.6 °F 30.19 in SE 1.0 mph 5.0 mph 53 % 0.00 in
14:08 33.0 °F 18.1 °F 30.19 in Calm   5.0 mph 54 % 0.00 in
14:14 33.0 °F 18.6 °F 30.18 in Calm   5.0 mph 55 % 0.00 in
14:19 33.2 °F 19.2 °F 30.18 in Calm   5.0 mph 56 % 0.00 in
14:24 33.3 °F 20.1 °F 30.17 in SW 2.0 mph 3.0 mph 58 % 0.00 in
14:26 33.3 °F 20.1 °F 30.17 in Calm   2.0 mph 58 % 0.00 in
14:30 33.4 °F 20.2 °F 30.17 in Calm   2.0 mph 58 % 0.00 in
14:35 33.5 °F 20.7 °F 30.16 in Calm   2.0 mph 59 % 0.00 in
14:40 33.7 °F 20.5 °F 30.17 in SW 1.0 mph 4.0 mph 58 % 0.00 in
14:41 33.7 °F 20.5 °F 30.17 in Calm   4.0 mph 58 % 0.00 in
14:46 33.7 °F 20.1 °F 30.17 in SW 1.0 mph 4.0 mph 57 % 0.00 in
14:47 33.8 °F 20.2 °F 30.17 in Calm   4.0 mph 57 % 0.00 in
14:53 33.9 °F 20.7 °F 30.17 in Calm   4.0 mph 58 % 0.01 in
14:58 34.0 °F 20.4 °F 30.17 in Calm   4.0 mph 57 % 0.01 in
15:08 34.2 °F 20.1 °F 30.17 in Calm   4.0 mph 56 % 0.01 in
15:15 34.3 °F 19.4 °F 30.18 in Calm   4.0 mph 54 % 0.01 in
15:45 34.8 °F 18.9 °F 30.17 in South 1.0 mph 5.0 mph 52 % 0.01 in
15:56 34.9 °F 19.9 °F 30.17 in Calm   3.0 mph 54 % 0.00 in
16:24 34.9 °F 21.6 °F 30.18 in SSW 1.0 mph 4.0 mph 58 % 0.00 in
16:31 34.9 °F 21.6 °F 30.18 in SW 1.0 mph 6.0 mph 58 % 0.00 in
16:39 35.1 °F 22.2 °F 30.18 in Calm   6.0 mph 59 % 0.00 in
16:44 35.1 °F 22.6 °F 30.17 in SW 3.0 mph 6.0 mph 60 % 0.00 in
17:05 35.2 °F 23.5 °F 30.17 in Calm   7.0 mph 62 % 0.00 in
17:10 35.1 °F 23.8 °F 30.16 in Calm   7.0 mph 63 % 0.00 in
17:20 35.2 °F 24.7 °F 30.16 in Calm   8.0 mph 65 % 0.00 in
17:31 35.2 °F 25.8 °F 30.16 in Calm   8.0 mph 68 % 0.00 in
17:37 35.1 °F 26.0 °F 30.16 in Calm   8.0 mph 69 % 0.00 in
17:42 35.1 °F 26.4 °F 30.16 in Calm   4.0 mph 70 % 0.00 in
17:47 35.0 °F 26.6 °F 30.16 in Calm   4.0 mph 71 % 0.00 in
17:53 34.9 °F 26.8 °F 30.16 in Calm   4.0 mph 72 % 0.00 in
17:54 34.9 °F 26.8 °F 30.16 in Calm   4.0 mph 72 % 0.00 in
17:55 34.9 °F 26.8 °F 30.16 in Calm   4.0 mph 72 % 0.00 in
17:56 34.9 °F 26.8 °F 30.16 in Calm   4.0 mph 72 % 0.00 in
17:57 34.9 °F 27.2 °F 30.16 in Calm   4.0 mph 73 % 0.00 in
17:59 34.8 °F 27.1 °F 30.16 in Calm   4.0 mph 73 % 0.00 in
18:05 34.8 °F 27.4 °F 30.16 in Calm   2.0 mph 74 % 0.00 in
18:07 34.8 °F 27.7 °F 30.16 in Calm   2.0 mph 75 % 0.00 in
18:08 34.8 °F 27.7 °F 30.16 in Calm   2.0 mph 75 % 0.00 in
18:10 34.7 °F 27.6 °F 30.16 in Calm   2.0 mph 75 % 0.00 in
18:14 34.7 °F 27.9 °F 30.16 in South 2.0 mph 2.0 mph 76 % 0.00 in
18:15 34.7 °F 28.3 °F 30.16 in Calm   3.0 mph 77 % 0.00 in
18:17 34.6 °F 28.2 °F 30.16 in Calm   3.0 mph 77 % 0.00 in
18:20 34.6 °F 28.2 °F 30.16 in Calm   3.0 mph 77 % 0.00 in
18:21 34.6 °F 28.2 °F 30.16 in Calm   3.0 mph 77 % 0.00 in
18:22 34.6 °F 28.5 °F 30.16 in Calm   3.0 mph 78 % 0.00 in
18:23 34.6 °F 28.5 °F 30.16 in Calm   3.0 mph 78 % 0.00 in
18:24 34.6 °F 28.5 °F 30.16 in Calm   3.0 mph 78 % 0.00 in
18:29 34.5 °F 28.7 °F 30.16 in Calm   3.0 mph 79 % 0.00 in
18:33 34.4 °F 28.6 °F 30.16 in Calm   2.0 mph 79 % 0.01 in
18:36 34.4 °F 28.9 °F 30.16 in Calm   1.0 mph 80 % 0.01 in
18:37 34.3 °F 28.8 °F 30.16 in Calm   1.0 mph 80 % 0.01 in
18:38 34.3 °F 28.8 °F 30.16 in Calm   1.0 mph 80 % 0.01 in
18:39 34.3 °F 28.8 °F 30.16 in Calm   1.0 mph 80 % 0.01 in
18:40 34.3 °F 29.1 °F 30.16 in Calm   1.0 mph 81 % 0.01 in
18:44 34.3 °F 29.1 °F 30.16 in Calm   1.0 mph 81 % 0.01 in
18:49 34.2 °F 29.3 °F 30.16 in Calm   1.0 mph 82 % 0.01 in
18:52 34.1 °F 29.2 °F 30.16 in Calm   1.0 mph 82 % 0.01 in
18:53 34.1 °F 29.2 °F 30.16 in Calm   1.0 mph 82 % 0.01 in
18:55 34.1 °F 29.5 °F 30.16 in Calm   1.0 mph 83 % 0.01 in
18:56 34.1 °F 29.5 °F 30.17 in Calm     83 % 0.01 in
18:58 34.0 °F 29.4 °F 30.16 in Calm     83 % 0.01 in
19:06 33.9 °F 29.6 °F 30.16 in Calm     84 % 0.02 in
19:08 33.8 °F 29.5 °F 30.16 in Calm     84 % 0.02 in
19:10 33.8 °F 29.5 °F 30.16 in Calm     84 % 0.02 in
19:11 33.8 °F 29.5 °F 30.16 in Calm   1.0 mph 84 % 0.02 in
19:12 33.8 °F 29.5 °F 30.16 in Calm   1.0 mph 84 % 0.02 in
19:13 33.8 °F 29.5 °F 30.16 in Calm   1.0 mph 84 % 0.02 in
19:14 33.8 °F 29.7 °F 30.16 in Calm   1.0 mph 85 % 0.02 in
19:15 33.7 °F 29.6 °F 30.16 in Calm   1.0 mph 85 % 0.02 in
19:16 33.7 °F 29.6 °F 30.16 in Calm   1.0 mph 85 % 0.02 in
19:21 33.7 °F 29.9 °F 30.16 in Calm   1.0 mph 86 % 0.03 in
19:26 33.6 °F 29.8 °F 30.16 in South 1.0 mph 1.0 mph 86 % 0.03 in
19:32 33.6 °F 30.1 °F 30.16 in Calm   1.0 mph 87 % 0.02 in
19:33 33.6 °F 30.1 °F 30.16 in Calm   1.0 mph 87 % 0.02 in
19:36 33.6 °F 30.1 °F 30.16 in Calm   3.0 mph 87 % 0.02 in
19:38 33.5 °F 30.0 °F 30.16 in Calm   3.0 mph 87 % 0.02 in
19:41 33.6 °F 30.4 °F 30.16 in Calm   3.0 mph 88 % 0.02 in
19:42 33.6 °F 30.4 °F 30.16 in Calm   3.0 mph 88 % 0.02 in
19:47 33.6 °F 30.4 °F 30.16 in Calm   3.0 mph 88 % 0.03 in
19:49 33.6 °F 30.4 °F 30.16 in Calm   3.0 mph 88 % 0.03 in
19:52 33.6 °F 30.4 °F 30.16 in Calm   3.0 mph 88 % 0.03 in
19:56 33.5 °F 30.6 °F 30.16 in Calm   3.0 mph 89 % 0.03 in
19:57 33.5 °F 30.6 °F 30.16 in Calm   3.0 mph 89 % 0.03 in
19:58 33.6 °F 30.7 °F 30.16 in Calm   2.0 mph 89 % 0.03 in
19:59 33.6 °F 30.7 °F 30.16 in Calm   1.0 mph 89 % 0.03 in
20:00 33.5 °F 30.6 °F 30.16 in Calm   1.0 mph 89 % 0.02 in
20:01 33.5 °F 30.6 °F 30.16 in Calm   1.0 mph 89 % 0.02 in
20:02 33.5 °F 30.6 °F 30.16 in Calm   1.0 mph 89 % 0.02 in
20:03 33.6 °F 30.7 °F 30.16 in Calm   1.0 mph 89 % 0.02 in
20:06 33.5 °F 30.6 °F 30.16 in Calm   1.0 mph 89 % 0.02 in
20:08 33.5 °F 30.8 °F 30.16 in Calm   1.0 mph 90 % 0.02 in
20:09 33.5 °F 30.8 °F 30.16 in Calm   1.0 mph 90 % 0.02 in
20:11 33.5 °F 30.8 °F 30.16 in Calm   1.0 mph 90 % 0.02 in
20:13 33.5 °F 30.8 °F 30.15 in Calm   1.0 mph 90 % 0.02 in
20:15 33.5 °F 30.8 °F 30.15 in Calm   1.0 mph 90 % 0.02 in
20:16 33.5 °F 30.8 °F 30.15 in Calm   1.0 mph 90 % 0.02 in
20:17 33.5 °F 30.8 °F 30.15 in Calm   1.0 mph 90 % 0.02 in
20:18 33.5 °F 30.8 °F 30.15 in Calm   1.0 mph 90 % 0.02 in
20:19 33.5 °F 30.8 °F 30.15 in Calm   1.0 mph 90 % 0.01 in
20:20 33.6 °F 30.9 °F 30.15 in Calm   1.0 mph 90 % 0.01 in
20:21 33.6 °F 30.9 °F 30.15 in Calm   1.0 mph 90 % 0.01 in
20:22 33.6 °F 30.9 °F 30.15 in Calm   2.0 mph 90 % 0.01 in
20:23 33.6 °F 31.2 °F 30.15 in Calm   2.0 mph 91 % 0.01 in
20:25 33.7 °F 31.3 °F 30.15 in Calm   2.0 mph 91 % 0.01 in
20:26 33.8 °F 31.4 °F 30.15 in Calm   2.0 mph 91 % 0.01 in
20:28 33.8 °F 31.4 °F 30.15 in Calm   2.0 mph 91 % 0.01 in
20:29 33.9 °F 31.5 °F 30.15 in Calm   2.0 mph 91 % 0.01 in
20:30 33.9 °F 31.5 °F 30.15 in Calm   2.0 mph 91 % 0.01 in
20:31 34.0 °F 31.9 °F 30.15 in Calm   2.0 mph 92 % 0.01 in
20:32 34.0 °F 31.9 °F 30.15 in Calm   2.0 mph 92 % 0.01 in
20:33 34.1 °F 32.0 °F 30.15 in Calm   2.0 mph 92 % 0.01 in
20:34 34.1 °F 32.0 °F 30.15 in Calm   2.0 mph 92 % 0.01 in
20:35 34.1 °F 32.0 °F 30.15 in Calm   2.0 mph 92 % 0.01 in
20:37 34.2 °F 32.1 °F 30.15 in Calm   2.0 mph 92 % 0.02 in
20:41 34.3 °F 32.2 °F 30.15 in Calm   4.0 mph 92 % 0.02 in
20:43 34.4 °F 32.3 °F 30.15 in SW 1.0 mph 4.0 mph 92 % 0.02 in
20:46 34.7 °F 32.6 °F 30.15 in Calm   4.0 mph 92 % 0.02 in
20:48 34.8 °F 32.9 °F 30.15 in SSW 2.0 mph 5.0 mph 93 % 0.01 in
20:49 34.9 °F 33.0 °F 30.15 in SW 1.0 mph 5.0 mph 93 % 0.01 in
20:51 35.0 °F 33.1 °F 30.15 in Calm   5.0 mph 93 % 0.01 in
20:52 35.0 °F 33.1 °F 30.14 in Calm   5.0 mph 93 % 0.01 in
20:54 35.1 °F 33.2 °F 30.14 in SW 2.0 mph 5.0 mph 93 % 0.01 in
20:55 35.2 °F 33.3 °F 30.14 in SSW 1.0 mph 5.0 mph 93 % 0.01 in
20:59 35.3 °F 33.4 °F 30.14 in SSW 1.0 mph 5.0 mph 93 % 0.02 in
21:01 35.4 °F 33.5 °F 30.14 in Calm   5.0 mph 93 % 0.02 in
21:04 35.5 °F 33.6 °F 30.14 in WSW 1.0 mph 5.0 mph 93 % 0.02 in
21:09 35.5 °F 33.6 °F 30.15 in SW 5.0 mph 5.0 mph 93 % 0.02 in
21:10 35.5 °F 33.6 °F 30.15 in SW 5.0 mph 5.0 mph 93 % 0.02 in
21:11 35.6 °F 33.7 °F 30.15 in Calm   5.0 mph 93 % 0.02 in
21:13 35.6 °F 33.7 °F 30.15 in SW 3.0 mph 5.0 mph 93 % 0.02 in
21:17 35.7 °F 33.8 °F 30.14 in SW 1.0 mph 5.0 mph 93 % 0.02 in
21:18 35.7 °F 33.8 °F 30.14 in SW 3.0 mph 5.0 mph 93 % 0.02 in
21:21 35.9 °F 34.0 °F 30.14 in Calm   5.0 mph 93 % 0.02 in
21:22 35.9 °F 34.0 °F 30.14 in Calm   5.0 mph 93 % 0.02 in
21:23 35.9 °F 34.0 °F 30.14 in SW 1.0 mph 5.0 mph 93 % 0.02 in
21:25 35.9 °F 34.0 °F 30.14 in Calm   5.0 mph 93 % 0.02 in
21:26 35.9 °F 34.0 °F 30.14 in SW 2.0 mph 5.0 mph 93 % 0.02 in
21:27 35.9 °F 34.0 °F 30.14 in Calm   5.0 mph 93 % 0.02 in
21:28 35.9 °F 34.0 °F 30.13 in Calm   6.0 mph 93 % 0.02 in
21:29 35.9 °F 34.0 °F 30.13 in Calm   6.0 mph 93 % 0.02 in
21:30 36.0 °F 34.4 °F 30.13 in Calm   6.0 mph 94 % 0.02 in
21:31 36.0 °F 34.4 °F 30.13 in Calm   6.0 mph 94 % 0.02 in
21:32 36.0 °F 34.4 °F 30.13 in Calm   6.0 mph 94 % 0.02 in
21:33 36.0 °F 34.4 °F 30.14 in Calm   6.0 mph 94 % 0.02 in
21:34 36.0 °F 34.4 °F 30.14 in Calm   6.0 mph 94 % 0.02 in
21:35 36.1 °F 34.5 °F 30.14 in Calm   6.0 mph 94 % 0.02 in
21:36 36.1 °F 34.5 °F 30.13 in Calm   6.0 mph 94 % 0.01 in
21:37 36.1 °F 34.5 °F 30.14 in SSW 1.0 mph 6.0 mph 94 % 0.01 in
21:38 36.1 °F 34.5 °F 30.13 in SSW 1.0 mph 6.0 mph 94 % 0.01 in
21:41 36.1 °F 34.5 °F 30.13 in Calm   6.0 mph 94 % 0.01 in
21:42 36.1 °F 34.5 °F 30.13 in Calm   6.0 mph 94 % 0.01 in
21:43 36.1 °F 34.5 °F 30.13 in Calm   6.0 mph 94 % 0.01 in
21:45 36.2 °F 34.6 °F 30.13 in Calm   6.0 mph 94 % 0.01 in
21:46 36.2 °F 34.6 °F 30.13 in Calm   6.0 mph 94 % 0.01 in
21:48 36.2 °F 34.6 °F 30.13 in Calm   4.0 mph 94 % 0.01 in
21:53 36.4 °F 34.8 °F 30.12 in SW 2.0 mph 4.0 mph 94 % 0.01 in
21:54 36.4 °F 34.8 °F 30.12 in Calm   4.0 mph 94 % 0.01 in
21:55 36.4 °F 34.8 °F 30.12 in South 2.0 mph 4.0 mph 94 % 0.01 in
21:56 36.4 °F 34.8 °F 30.12 in Calm   4.0 mph 94 % 0.01 in
21:58 36.5 °F 34.9 °F 30.12 in SSW 2.0 mph 5.0 mph 94 % 0.00 in
21:59 36.5 °F 34.9 °F 30.12 in SSW 1.0 mph 5.0 mph 94 % 0.00 in
22:00 36.6 °F 35.0 °F 30.12 in SSW 3.0 mph 5.0 mph 94 % 0.00 in
22:01 36.6 °F 35.0 °F 30.12 in SSW 1.0 mph 5.0 mph 94 % 0.00 in
22:02 36.6 °F 35.0 °F 30.12 in SSW 2.0 mph 5.0 mph 94 % 0.00 in
22:03 36.7 °F 35.1 °F 30.12 in Calm   5.0 mph 94 % 0.00 in
22:04 36.7 °F 35.1 °F 30.12 in SW 4.0 mph 5.0 mph 94 % 0.00 in
22:07 36.7 °F 35.1 °F 30.12 in Calm   5.0 mph 94 % 0.00 in
22:08 36.8 °F 35.2 °F 30.12 in SSW 1.0 mph 5.0 mph 94 % 0.00 in
22:09 36.8 °F 35.2 °F 30.12 in Calm   5.0 mph 94 % 0.00 in
22:10 36.8 °F 35.2 °F 30.12 in Calm   5.0 mph 94 % 0.00 in
22:11 36.8 °F 35.2 °F 30.12 in SSW 1.0 mph 5.0 mph 94 % 0.00 in
22:12 36.9 °F 35.3 °F 30.12 in SSW 3.0 mph 6.0 mph 94 % 0.00 in
22:13 36.9 °F 35.3 °F 30.12 in Calm   6.0 mph 94 % 0.00 in
22:14 36.9 °F 35.3 °F 30.12 in SSW 1.0 mph 6.0 mph 94 % 0.00 in
22:15 37.0 °F 35.4 °F 30.12 in SW 1.0 mph 6.0 mph 94 % 0.00 in
22:16 37.0 °F 35.7 °F 30.12 in SW 3.0 mph 6.0 mph 95 % 0.00 in
22:17 37.0 °F 35.7 °F 30.12 in Calm   6.0 mph 95 % 0.00 in
22:18 37.0 °F 35.7 °F 30.12 in SW 1.0 mph 6.0 mph 95 % 0.00 in
22:20 37.0 °F 35.7 °F 30.12 in Calm   6.0 mph 95 % 0.00 in
22:21 37.1 °F 35.8 °F 30.12 in SW 1.0 mph 6.0 mph 95 % 0.00 in
22:22 37.1 °F 35.5 °F 30.12 in SSW 1.0 mph 7.0 mph 94 % 0.00 in
22:23 37.1 °F 35.5 °F 30.12 in SSW 1.0 mph 7.0 mph 94 % 0.00 in
22:24 37.2 °F 35.6 °F 30.12 in Calm   7.0 mph 94 % 0.00 in
22:26 37.2 °F 35.9 °F 30.12 in SSW 3.0 mph 7.0 mph 95 % 0.00 in
22:27 37.2 °F 35.9 °F 30.12 in SSW 6.0 mph 7.0 mph 95 % 0.00 in
22:28 37.2 °F 35.9 °F 30.12 in SSW 2.0 mph 7.0 mph 95 % 0.00 in
22:29 37.3 °F 36.0 °F 30.12 in Calm   7.0 mph 95 % 0.00 in
22:30 37.3 °F 36.0 °F 30.12 in SW 1.0 mph 7.0 mph 95 % 0.00 in
22:31 37.3 °F 36.0 °F 30.12 in SW 2.0 mph 7.0 mph 95 % 0.00 in
22:33 37.3 °F 36.0 °F 30.13 in Calm   7.0 mph 95 % 0.00 in
22:35 37.3 °F 36.0 °F 30.13 in SW 4.0 mph 7.0 mph 95 % 0.00 in
22:36 37.3 °F 36.0 °F 30.12 in Calm   7.0 mph 95 % 0.00 in
22:37 37.3 °F 36.0 °F 30.12 in Calm   7.0 mph 95 % 0.00 in
22:39 37.4 °F 36.1 °F 30.12 in SSW 2.0 mph 7.0 mph 95 % 0.00 in
22:40 37.4 °F 36.1 °F 30.12 in SSW 1.0 mph 6.0 mph 95 % 0.00 in
22:41 37.5 °F 36.2 °F 30.12 in SSW 1.0 mph 6.0 mph 95 % 0.00 in
22:42 37.4 °F 36.1 °F 30.13 in SSW 1.0 mph 6.0 mph 95 % 0.00 in
22:43 37.4 °F 36.1 °F 30.13 in SW 4.0 mph 6.0 mph 95 % 0.00 in
22:44 37.4 °F 36.1 °F 30.13 in WSW 3.0 mph 6.0 mph 95 % 0.00 in
22:47 37.5 °F 36.2 °F 30.13 in Calm   7.0 mph 95 % 0.00 in
22:51 37.6 °F 36.3 °F 30.13 in SW 1.0 mph 7.0 mph 95 % 0.00 in
22:54 37.7 °F 36.4 °F 30.13 in SW 4.0 mph 8.0 mph 95 % 0.00 in
22:55 37.7 °F 36.4 °F 30.13 in SW 1.0 mph 8.0 mph 95 % 0.00 in
22:56 37.7 °F 36.4 °F 30.12 in Calm   8.0 mph 95 % 0.00 in
22:58 37.7 °F 36.4 °F 30.12 in Calm   8.0 mph 95 % 0.00 in
22:59 37.7 °F 36.4 °F 30.12 in Calm   8.0 mph 95 % 0.00 in
23:00 37.7 °F 36.4 °F 30.12 in SSW 1.0 mph 8.0 mph 95 % 0.00 in
23:02 37.8 °F 36.5 °F 30.12 in SSW 1.0 mph 8.0 mph 95 % 0.00 in
23:03 37.8 °F 36.5 °F 30.12 in SSW 2.0 mph 8.0 mph 95 % 0.00 in
23:04 37.8 °F 36.5 °F 30.12 in SSW 2.0 mph 8.0 mph 95 % 0.00 in
23:05 37.8 °F 36.5 °F 30.12 in Calm   8.0 mph 95 % 0.00 in
23:06 37.8 °F 36.5 °F 30.12 in Calm   7.0 mph 95 % 0.00 in
23:08 37.8 °F 36.5 °F 30.12 in SW 3.0 mph 7.0 mph 95 % 0.00 in
23:09 37.8 °F 36.5 °F 30.12 in Calm   7.0 mph 95 % 0.00 in
23:11 37.8 °F 36.5 °F 30.12 in SW 1.0 mph 7.0 mph 95 % 0.00 in
23:12 37.8 °F 36.5 °F 30.13 in SW 1.0 mph 7.0 mph 95 % 0.00 in
23:13 37.9 °F 36.6 °F 30.12 in SSW 5.0 mph 6.0 mph 95 % 0.00 in
23:14 37.9 °F 36.6 °F 30.13 in Calm   6.0 mph 95 % 0.00 in
23:15 37.8 °F 36.5 °F 30.13 in Calm   6.0 mph 95 % 0.00 in
23:16 37.8 °F 36.5 °F 30.13 in Calm   6.0 mph 95 % 0.00 in
23:17 37.9 °F 36.6 °F 30.13 in SW 2.0 mph 6.0 mph 95 % 0.00 in
23:18 37.8 °F 36.5 °F 30.13 in SW 1.0 mph 6.0 mph 95 % 0.00 in
23:19 37.9 °F 36.6 °F 30.12 in Calm   6.0 mph 95 % 0.00 in
23:20 37.9 °F 36.6 °F 30.12 in SW 1.0 mph 6.0 mph 95 % 0.00 in
23:23 37.9 °F 36.6 °F 30.12 in Calm   5.0 mph 95 % 0.00 in
23:30 38.0 °F 36.7 °F 30.12 in SSW 4.0 mph 9.0 mph 95 % 0.00 in
23:32 38.0 °F 36.7 °F 30.12 in WSW 3.0 mph 9.0 mph 95 % 0.00 in
23:33 38.0 °F 36.7 °F 30.12 in Calm   9.0 mph 95 % 0.00 in
23:34 38.0 °F 36.7 °F 30.12 in Calm   9.0 mph 95 % 0.00 in
23:35 38.0 °F 36.7 °F 30.12 in Calm   9.0 mph 95 % 0.00 in
23:37 38.0 °F 36.7 °F 30.12 in SW 3.0 mph 9.0 mph 95 % 0.00 in
23:38 38.1 °F 36.8 °F 30.13 in SW 3.0 mph 9.0 mph 95 % 0.00 in
23:39 38.1 °F 36.8 °F 30.13 in Calm   9.0 mph 95 % 0.00 in
23:40 38.1 °F 36.8 °F 30.13 in SW 5.0 mph 9.0 mph 95 % 0.00 in
23:41 38.1 °F 36.8 °F 30.13 in SW 1.0 mph 9.0 mph 95 % 0.00 in
23:45 38.1 °F 36.8 °F 30.13 in Calm   8.0 mph 95 % 0.00 in
23:46 38.1 °F 36.8 °F 30.12 in Calm   8.0 mph 95 % 0.00 in
23:47 38.0 °F 36.7 °F 30.12 in SSW 2.0 mph 8.0 mph 95 % 0.00 in
23:48 38.0 °F 36.7 °F 30.12 in SSW 1.0 mph 8.0 mph 95 % 0.00 in
23:49 38.0 °F 36.7 °F 30.12 in Calm   8.0 mph 95 % 0.00 in
23:50 38.0 °F 36.7 °F 30.12 in SSW 3.0 mph 8.0 mph 95 % 0.00 in
23:51 38.0 °F 36.7 °F 30.12 in Calm   8.0 mph 95 % 0.00 in
23:52 38.0 °F 36.7 °F 30.12 in Calm   8.0 mph 95 % 0.00 in
23:53 38.0 °F 36.7 °F 30.12 in SW 1.0 mph 8.0 mph 95 % 0.00 in
23:54 38.0 °F 36.7 °F 30.12 in SSW 3.0 mph 8.0 mph 95 % 0.00 in
23:55 38.0 °F 36.7 °F 30.12 in SSW 2.0 mph 8.0 mph 95 % 0.00 in
23:56 38.0 °F 36.7 °F 30.12 in SSW 3.0 mph 8.0 mph 95 % 0.00 in
23:57 38.0 °F 36.7 °F 30.12 in SW 1.0 mph 8.0 mph 95 % 0.00 in
23:58 38.0 °F 36.7 °F 30.12 in Calm   8.0 mph 95 % 0.00 in
MarylandWx.com
Compliments of Weather Underground - 7 mb